Data for 05/01/2005

Time Sea-Level Adjusted Pressure Absolute Pressure Temperature Relative Humidity Dew Point   
(mb) (inHg) (mb) (inHg) (C) (F) (%) (C) (F)
00:05 1024 30.24 853 25.19 -0.5 31 56 -8.3 17.1
00:10 1024 30.24 853 25.19 -0.6 31 56 -8.3 17
00:15 1024 30.24 853 25.19 -0.6 30.8 56 -8.4 16.9
00:20 1024 30.24 853 25.19 -0.7 30.8 56 -8.4 16.9
00:25 1024 30.24 853 25.19 -0.8 30.6 57 -8.2 17.2
00:30 1024 30.24 853 25.19 -1 30.1 58 -8.2 17.3
00:35 1024 30.24 853 25.19 -1.1 30.1 58 -8.3 17.1
00:40 1024 30.24 853 25.19 -1 30.2 58 -8.3 17.1
00:45 1024 30.24 853 25.19 -1 30.2 58 -8.3 17
00:50 1024 30.24 853 25.19 -1 30.2 58 -8.3 17
00:55 1024 30.24 853 25.19 -1.1 29.9 59 -8.2 17.3
01:00 1024 30.24 853 25.19 -1.3 29.6 59 -8.3 17.1
01:05 1024 30.24 853 25.19 -1.4 29.5 60 -8.2 17.3
01:10 1024 30.24 853 25.19 -1.5 29.3 60 -8.3 17.1
01:15 1024 30.24 853 25.19 -1.5 29.2 61 -8.2 17.3
01:20 1024 30.24 853 25.19 -1.6 29.1 61 -8.3 17.1
01:25 1024 30.24 853 25.19 -1.6 29.2 61 -8.2 17.3
01:30 1024 30.24 853 25.19 -1.7 29 62 -8 17.6
01:35 1024 30.24 853 25.19 -1.9 28.6 63 -7.9 17.7
01:40 1024 30.24 854 25.22 -2.1 28.3 64 -8 17.6
01:45 1024 30.24 854 25.22 -2.1 28.2 64 -8.1 17.5
01:50 1024 30.24 854 25.22 -2.1 28.1 64 -8 17.5
01:55 1025 30.27 854 25.22 -2.2 28.1 64 -8 17.6
02:00 1025 30.27 854 25.22 -2.2 28 65 -8 17.6
02:05 1025 30.27 854 25.22 -2.3 27.9 65 -8 17.6
02:10 1025 30.27 854 25.22 -2.3 27.9 65 -8 17.7
02:15 1025 30.27 854 25.22 -2.3 27.8 65 -7.9 17.7
02:20 1025 30.27 854 25.22 -2.2 28 65 -8 17.6
02:25 1025 30.27 854 25.22 -2.2 28.1 65 -8 17.7
02:30 1025 30.27 854 25.22 -2.1 28.1 65 -7.9 17.7
02:35 1025 30.27 854 25.22 -2.1 28.1 65 -7.9 17.8
02:40 1025 30.27 854 25.22 -2.1 28.2 65 -7.9 17.8
02:45 1025 30.27 854 25.22 -2 28.3 65 -7.8 17.9
02:50 1025 30.27 854 25.22 -2.1 28.3 65 -7.9 17.8
02:55 1025 30.27 854 25.22 -2 28.3 65 -7.8 17.9
03:00 1025 30.27 854 25.22 -2 28.5 65 -7.7 18.2
03:05 1025 30.27 854 25.22 -2 28.5 65 -7.7 18.2
03:10 1025 30.27 854 25.22 -1.8 28.7 64 -7.7 18.1
03:15 1025 30.27 854 25.22 -1.7 28.9 62 -8 17.5
03:20 1025 30.27 854 25.22 -1.7 29 63 -7.9 17.8
03:25 1025 30.27 854 25.22 -1.6 29.1 63 -7.7 18.1
03:30 1025 30.27 854 25.22 -1.7 29 64 -7.6 18.3
03:35 1025 30.27 854 25.22 -1.7 28.9 64 -7.8 18
03:40 1025 30.27 854 25.22 -1.7 28.9 63 -7.8 17.9
03:45 1025 30.27 854 25.22 -1.7 29 63 -7.8 17.9
03:50 1025 30.27 854 25.22 -1.6 29.1 63 -7.7 18.1
03:55 1025 30.27 854 25.22 -1.6 29 63 -7.8 18
04:00 1025 30.27 854 25.22 -1.6 29.1 62 -7.9 17.8
04:05 1025 30.27 854 25.22 -1.6 29.2 63 -7.8 18
04:10 1025 30.27 854 25.22 -1.5 29.3 62 -7.8 17.9
04:15 1025 30.27 854 25.22 -1.5 29.3 63 -7.6 18.3
04:20 1025 30.27 854 25.22 -1.6 29.2 64 -7.6 18.4
04:25 1025 30.27 854 25.22 -1.5 29.2 64 -7.5 18.5
04:30 1025 30.27 854 25.22 -1.5 29.2 64 -7.5 18.5
04:35 1025 30.27 854 25.22 -1.5 29.2 64 -7.5 18.4
04:40 1025 30.27 854 25.22 -1.6 29.1 65 -7.2 19
04:45 1025 30.27 855 25.25 -1.8 28.8 66 -7.3 18.8
04:50 1025 30.27 855 25.25 -1.9 28.6 66 -7.4 18.7
04:55 1025 30.27 855 25.25 -1.9 28.7 66 -7.3 18.8
05:00 1025 30.27 855 25.25 -1.9 28.6 67 -7.2 19
05:05 1025 30.27 855 25.25 -2 28.4 67 -7.3 18.9
05:10 1025 30.27 855 25.25 -2.1 28.2 68 -7.3 18.8
05:15 1025 30.27 855 25.25 -2.1 28.2 67 -7.4 18.7
05:20 1026 30.3 855 25.25 -2.1 28.2 68 -7.3 18.8
05:25 1026 30.3 855 25.25 -2.1 28.1 68 -7.4 18.8
05:30 1026 30.3 855 25.25 -2.1 28.2 67 -7.4 18.7
05:35 1026 30.3 855 25.25 -2 28.5 66 -7.6 18.4
05:40 1025 30.27 855 25.25 -1.9 28.6 66 -7.4 18.6
05:45 1025 30.27 855 25.25 -1.9 28.6 65 -7.5 18.5
05:50 1025 30.27 855 25.25 -1.8 28.7 65 -7.5 18.6
05:55 1025 30.27 855 25.25 -1.7 29 65 -7.4 18.7
06:00 1025 30.27 855 25.25 -1.9 28.6 66 -7.5 18.5
06:05 1025 30.27 855 25.25 -2.1 28.3 67 -7.3 18.8
06:10 1025 30.27 855 25.25 -2.2 28.1 67 -7.5 18.5
06:15 1025 30.27 855 25.25 -2.2 28.1 66 -7.6 18.3
06:20 1025 30.27 855 25.25 -2.2 28.1 67 -7.5 18.5
06:25 1025 30.27 855 25.25 -2.2 28.1 67 -7.4 18.7
06:30 1025 30.27 855 25.25 -2.1 28.2 67 -7.4 18.6
06:35 1025 30.27 855 25.25 -2.1 28.1 68 -7.3 18.9
06:40 1025 30.27 855 25.25 -2.2 28 67 -7.5 18.5
06:45 1025 30.27 855 25.25 -2.2 28 67 -7.5 18.5
06:50 1025 30.27 855 25.25 -2.2 28 68 -7.2 19
06:55 1025 30.27 855 25.25 -2.4 27.7 70 -7.1 19.2
07:00 1025 30.27 855 25.25 -2.5 27.5 71 -7 19.3
07:05 1026 30.3 855 25.25 -2.5 27.4 70 -7.2 19
07:10 1026 30.3 855 25.25 -2.5 27.6 69 -7.3 18.8
07:15 1026 30.3 855 25.25 -2.1 28.3 67 -7.3 18.8
07:20 1026 30.3 855 25.25 -1.9 28.6 68 -7.1 19.2
07:25 1026 30.3 855 25.25 -2 28.4 69 -6.9 19.6
07:30 1026 30.3 855 25.25 -2.4 27.7 72 -6.8 19.7
07:35 1026 30.3 855 25.25 -2.4 27.6 71 -7 19.3
07:40 1026 30.3 855 25.25 -1.8 28.7 67 -7.2 19.1
07:45 1026 30.3 855 25.25 -1.3 29.7 65 -7 19.4
07:50 1026 30.3 855 25.25 -1.1 30 65 -6.9 19.6
07:55 1026 30.3 855 25.25 -1.1 30 65 -7 19.5
08:00 1026 30.3 855 25.25 -0.9 30.4 64 -6.7 19.9
08:05 1026 30.3 855 25.25 -0.6 30.9 64 -6.6 20.1
08:10 1026 30.3 855 25.25 -0.3 31.5 62 -6.8 19.7
08:15 1026 30.3 855 25.25 0.5 32.9 57 -7 19.4
08:20 1026 30.3 855 25.25 0.4 32.7 58 -6.9 19.6
08:25 1026 30.3 855 25.25 0.9 33.5 55 -7.1 19.2
08:30 1026 30.3 855 25.25 1.1 34 55 -6.9 19.7
08:35 1026 30.3 855 25.25 1.4 34.5 53 -7.1 19.1
08:40 1026 30.3 855 25.25 1.5 34.6 53 -7 19.4
08:45 1026 30.3 855 25.25 1.3 34.4 54 -7 19.4
08:50 1026 30.3 855 25.25 1.6 34.8 52 -7.2 19.1
08:55 1026 30.3 855 25.25 1.9 35.5 51 -7.2 19.1
09:00 1026 30.3 855 25.25 2.3 36.1 50 -7.1 19.2
09:05 1026 30.3 855 25.25 2.5 36.6 48 -7.5 18.5
09:10 1026 30.3 855 25.25 2.5 36.5 49 -7.2 19
09:15 1026 30.3 855 25.25 2.7 36.9 48 -7.2 19
09:20 1026 30.3 855 25.25 3.3 37.9 45 -7.5 18.4
09:25 1026 30.3 855 25.25 3.2 37.7 45 -7.7 18.1
09:30 1026 30.3 855 25.25 3.1 37.5 45 -7.7 18.1
09:35 1026 30.3 855 25.25 3.3 37.9 44 -7.8 18
09:40 1026 30.3 855 25.25 3.3 37.9 45 -7.7 18.2
09:45 1026 30.3 855 25.25 2.4 36.3 47 -7.8 17.9
09:50 1026 30.3 855 25.25 2.8 37.1 46 -7.7 18.2
09:55 1026 30.3 855 25.25 3.2 37.7 47 -7.2 19
10:00 1026 30.3 855 25.25 2.6 36.7 47 -7.7 18.2
10:05 1026 30.3 855 25.25 2.6 36.7 46 -7.8 17.9
10:10 1026 30.3 855 25.25 2.2 35.9 48 -7.7 18.1
10:15 1026 30.3 855 25.25 2.9 37.3 44 -8.2 17.3
10:20 1026 30.3 855 25.25 4 39.2 43 -7.5 18.5
10:25 1026 30.3 855 25.25 4.4 40 39 -8.3 17.1
10:30 1026 30.3 855 25.25 4.6 40.3 41 -7.5 18.4
10:35 1026 30.3 855 25.25 4.2 39.6 42 -7.7 18.2
10:40 1026 30.3 855 25.25 4.3 39.7 40 -8 17.5
10:45 1026 30.3 855 25.25 3.6 38.4 46 -6.9 19.5
10:50 1026 30.3 855 25.25 4.4 39.9 40 -8.2 17.3
10:55 1026 30.3 855 25.25 5.2 41.3 39 -7.5 18.4
11:00 1026 30.3 855 25.25 5.4 41.8 38 -7.8 17.9
11:05 1026 30.3 855 25.25 5.5 42 37 -7.9 17.7
11:10 1026 30.3 855 25.25 5.5 41.9 38 -7.6 18.3
11:15 1026 30.3 855 25.25 5.8 42.5 37 -7.8 17.9
11:20 1026 30.3 855 25.25 6.2 43.2 35 -8.2 17.3
11:25 1026 30.3 855 25.25 5.8 42.4 38 -7.4 18.7
11:30 1026 30.3 855 25.25 5.3 41.5 39 -7.5 18.5
11:35 1026 30.3 855 25.25 4.9 40.8 40 -7.6 18.3
11:40 1025 30.27 855 25.25 4.2 39.6 41 -8 17.6
11:45 1025 30.27 855 25.25 5.3 41.5 37 -8.1 17.4
11:50 1025 30.27 855 25.25 4.5 40.1 41 -7.5 18.5
11:55 1025 30.27 855 25.25 4.7 40.4 39 -8.1 17.5
12:00 1025 30.27 855 25.25 6.2 43.1 35 -8.2 17.2
12:05 1025 30.27 855 25.25 6.7 44 34 -8.1 17.4
12:10 1025 30.27 854 25.22 6.7 44 33 -8.3 17.1
12:15 1025 30.27 854 25.22 7.3 45.1 33 -7.8 18
12:20 1025 30.27 854 25.22 7.2 45 35 -7.3 18.9
12:25 1025 30.27 854 25.22 7.6 45.6 34 -7.5 18.6
12:30 1025 30.27 854 25.22 7.7 45.9 33 -7.4 18.6
12:35 1025 30.27 854 25.22 7.7 45.9 33 -7.4 18.6
12:40 1025 30.27 854 25.22 8 46.3 34 -7 19.4
12:45 1025 30.27 854 25.22 7.8 46 34 -7.1 19.2
12:50 1025 30.27 854 25.22 7.6 45.7 33 -7.7 18.2
12:55 1025 30.27 854 25.22 7.9 46.2 34 -6.9 19.5
13:00 1025 30.27 854 25.22 7.4 45.3 35 -7.2 19
13:05 1025 30.27 854 25.22 7.5 45.5 32 -8 17.7
13:10 1025 30.27 854 25.22 7.5 45.4 33 -7.6 18.3
13:15 1025 30.27 854 25.22 6.7 44 37 -7.1 19.2
13:20 1025 30.27 854 25.22 7.2 45 33 -8 17.5
13:25 1025 30.27 854 25.22 8.3 47 33 -6.8 19.7
13:30 1025 30.27 854 25.22 7.4 45.4 34 -7.5 18.6
13:35 1025 30.27 854 25.22 8.2 46.8 31 -8 17.6
13:40 1025 30.27 854 25.22 9.1 48.5 30 -7.7 18.1
13:45 1025 30.27 854 25.22 9.1 48.4 30 -7.5 18.4
13:50 1025 30.27 854 25.22 9.1 48.3 30 -7.7 18.2
13:55 1025 30.27 854 25.22 9 48.2 30 -7.5 18.6
14:00 1024 30.24 854 25.22 8.7 47.7 31 -7.6 18.3
14:05 1024 30.24 854 25.22 9 48.2 30 -7.5 18.5
14:10 1024 30.24 854 25.22 9.1 48.3 30 -7.6 18.2
14:15 1024 30.24 854 25.22 8.8 47.8 31 -7.5 18.6
14:20 1024 30.24 854 25.22 9.1 48.4 30 -7.7 18.1
14:25 1024 30.24 854 25.22 9.3 48.7 29 -7.7 18.2
14:30 1024 30.24 854 25.22 9.6 49.3 28 -8.1 17.4
14:35 1024 30.24 854 25.22 8.5 47.2 32 -7.2 19.1
14:40 1024 30.24 853 25.19 9.2 48.6 30 -7.6 18.2
14:45 1024 30.24 853 25.19 9.9 49.8 28 -7.7 18.2
14:50 1024 30.24 853 25.19 10 50.1 28 -7.6 18.3
14:55 1024 30.24 853 25.19 10.1 50.1 29 -7.3 18.9
15:00 1024 30.24 853 25.19 10.6 51 28 -7.2 19
15:05 1024 30.24 853 25.19 10.4 50.6 28 -7.3 18.8
15:10 1024 30.24 853 25.19 10.5 50.9 28 -7.2 19
15:15 1024 30.24 853 25.19 10.2 50.4 30 -6.7 20
15:20 1024 30.24 853 25.19 10.3 50.6 28 -7.3 18.8
15:25 1024 30.24 853 25.19 9.9 49.9 29 -7.1 19.3
15:30 1024 30.24 853 25.19 9.7 49.4 28 -8.2 17.3
15:35 1024 30.24 853 25.19 10.5 50.9 27 -7.8 18
15:40 1024 30.24 853 25.19 10.3 50.6 29 -7.1 19.2
15:45 1024 30.24 853 25.19 10 49.9 29 -7.3 18.8
15:50 1024 30.24 853 25.19 9.5 49.1 29 -7.9 17.8
15:55 1024 30.24 853 25.19 10.3 50.6 27 -7.9 17.7
16:00 1024 30.24 853 25.19 10.5 51 27 -7.7 18.2
16:05 1024 30.24 853 25.19 10.9 51.5 26 -8 17.6
16:10 1024 30.24 853 25.19 11 51.8 26 -7.7 18.2
16:15 1023 30.21 853 25.19 10.8 51.4 26 -8 17.6
16:20 1023 30.21 853 25.19 10.9 51.6 27 -7.4 18.7
16:25 1023 30.21 853 25.19 10.7 51.3 27 -7.3 18.8
16:30 1023 30.21 853 25.19 10.8 51.5 27 -7.5 18.4
16:35 1023 30.21 853 25.19 10.1 50.2 27 -8 17.6
16:40 1023 30.21 852 25.16 10.4 50.7 27 -7.6 18.3
16:45 1023 30.21 852 25.16 10.9 51.6 26 -7.8 17.9
16:50 1023 30.21 852 25.16 10.9 51.6 26 -7.9 17.8
16:55 1023 30.21 852 25.16 10.7 51.2 26 -7.8 17.9
17:00 1023 30.21 852 25.16 11.1 52 25 -8 17.7
17:05 1023 30.21 852 25.16 11.3 52.4 25 -8 17.7
17:10 1023 30.21 852 25.16 11.5 52.6 24 -8.2 17.3
17:15 1023 30.21 852 25.16 11.7 53 25 -7.7 18.2
17:20 1023 30.21 852 25.16 11.2 52.2 26 -7.8 18
17:25 1023 30.21 852 25.16 10.8 51.4 26 -7.9 17.8
17:30 1023 30.21 852 25.16 11.3 52.3 25 -8.1 17.4
17:35 1023 30.21 852 25.16 11.5 52.8 24 -8.4 17
17:40 1023 30.21 852 25.16 11.2 52.2 25 -8.2 17.2
17:45 1023 30.21 852 25.16 11.2 52.2 26 -7.8 18
17:50 1023 30.21 852 25.16 11.5 52.8 25 -7.9 17.8
17:55 1023 30.21 852 25.16 10.7 51.3 26 -7.8 17.9
18:00 1023 30.21 852 25.16 10.4 50.6 27 -8 17.7
18:05 1023 30.21 852 25.16 9.9 49.9 27 -8.3 17.1
18:10 1023 30.21 852 25.16 9.6 49.4 27 -8.5 16.6
18:15 1023 30.21 852 25.16 10 50 26 -8.4 16.9
18:20 1023 30.21 852 25.16 9.5 49.2 27 -8.5 16.7
18:25 1023 30.21 852 25.16 9.9 49.8 26 -8.9 15.9
18:30 1023 30.21 852 25.16 9.8 49.6 26 -8.7 16.3
18:35 1023 30.21 852 25.16 9.9 49.9 26 -8.6 16.4
18:40 1023 30.21 852 25.16 9 48.2 28 -8.5 16.8
18:45 1023 30.21 852 25.16 8.4 47.1 29 -8.6 16.6
18:50 1023 30.21 852 25.16 8.6 47.5 29 -8.4 16.9
18:55 1023 30.21 852 25.16 8.3 47 29 -8.7 16.3
19:00 1023 30.21 852 25.16 8.1 46.6 28 -9.1 15.5
19:05 1023 30.21 852 25.16 8.1 46.5 30 -8.7 16.3
19:10 1023 30.21 852 25.16 8.1 46.5 30 -8.6 16.6
19:15 1023 30.21 852 25.16 7.8 46 31 -8.5 16.8
19:20 1023 30.21 852 25.16 7.6 45.7 31 -8.4 16.9
19:25 1023 30.21 852 25.16 7.6 45.7 31 -8.3 17
19:30 1023 30.21 852 25.16 7.4 45.2 32 -8.2 17.2
19:35 1023 30.21 852 25.16 7.1 44.9 34 -7.8 17.9
19:40 1023 30.21 852 25.16 7 44.6 35 -7.5 18.5
19:45 1023 30.21 852 25.16 6.8 44.3 36 -7.2 19
19:50 1023 30.21 852 25.16 6.6 43.9 37 -6.9 19.6
19:55 1023 30.21 852 25.16 6.5 43.7 38 -6.9 19.6
20:00 1023 30.21 852 25.16 6.2 43.2 39 -6.6 20.1
20:05 1023 30.21 852 25.16 6 42.8 41 -6.4 20.4
20:10 1023 30.21 852 25.16 5.8 42.4 42 -6.3 20.6
20:15 1023 30.21 852 25.16 5.5 42 42 -6.3 20.6
20:20 1023 30.21 852 25.16 5.3 41.5 43 -6.3 20.7
20:25 1023 30.21 852 25.16 5 41 43 -6.4 20.4
20:30 1023 30.21 852 25.16 4.9 40.8 44 -6.5 20.3
20:35 1023 30.21 852 25.16 4.7 40.4 44 -6.5 20.3
20:40 1023 30.21 852 25.16 4.5 40 45 -6.4 20.4
20:45 1023 30.21 852 25.16 4.4 39.9 45 -6.5 20.4
20:50 1023 30.21 852 25.16 4.2 39.5 46 -6.3 20.6
20:55 1023 30.21 852 25.16 4.1 39.4 46 -6.5 20.3
21:00 1023 30.21 852 25.16 4 39.2 46 -6.5 20.4
21:05 1023 30.21 852 25.16 3.9 39 47 -6.5 20.3
21:10 1023 30.21 852 25.16 3.8 38.8 48 -6.2 20.8
21:15 1023 30.21 853 25.19 3.6 38.4 49 -6.2 20.8
21:20 1023 30.21 853 25.19 3.4 38.1 49 -6.4 20.6
21:25 1023 30.21 853 25.19 3.3 37.9 50 -6.3 20.7
21:30 1023 30.21 853 25.19 3.1 37.6 50 -6.3 20.7
21:35 1024 30.24 853 25.19 3 37.4 50 -6.4 20.5
21:40 1024 30.24 853 25.19 2.9 37.2 50 -6.5 20.3
21:45 1024 30.24 853 25.19 2.8 37 51 -6.4 20.6
21:50 1024 30.24 853 25.19 2.6 36.7 51 -6.5 20.4
21:55 1024 30.24 853 25.19 2.5 36.6 52 -6.5 20.4
22:00 1024 30.24 853 25.19 2.4 36.4 51 -6.6 20.2
22:05 1024 30.24 853 25.19 2.4 36.4 51 -6.6 20
22:10 1024 30.24 853 25.19 2.3 36.1 51 -6.8 19.8
22:15 1024 30.24 853 25.19 2.2 36 52 -6.7 20
22:20 1024 30.24 853 25.19 2.1 35.8 52 -6.8 19.8
22:25 1024 30.24 853 25.19 2 35.7 52 -6.7 20
22:30 1024 30.24 853 25.19 1.9 35.5 52 -6.8 19.7
22:35 1024 30.24 853 25.19 1.9 35.3 52 -6.9 19.6
22:40 1024 30.24 853 25.19 1.8 35.2 53 -6.8 19.8
22:45 1024 30.24 853 25.19 1.6 34.9 53 -6.9 19.6
22:50 1024 30.24 853 25.19 1.5 34.8 54 -6.8 19.7
22:55 1024 30.24 853 25.19 1.4 34.5 54 -7 19.5
23:00 1024 30.24 853 25.19 1.4 34.5 54 -7 19.5
23:05 1024 30.24 853 25.19 1.2 34.2 54 -7 19.3
23:10 1024 30.24 853 25.19 1.1 34 53 -7.4 18.7
23:15 1024 30.24 853 25.19 1.1 34 52 -7.6 18.3
23:20 1024 30.24 853 25.19 1.1 33.9 53 -7.5 18.4
23:25 1024 30.24 853 25.19 1 33.8 53 -7.5 18.4
23:30 1024 30.24 853 25.19 0.9 33.6 53 -7.7 18.2
23:35 1024 30.24 853 25.19 0.9 33.6 52 -7.8 18
23:40 1024 30.24 853 25.19 0.8 33.4 53 -7.6 18.2
23:45 1024 30.24 853 25.19 0.7 33.2 54 -7.5 18.5
23:50 1024 30.24 853 25.19 0.5 32.8 54 -7.7 18.1
23:55 1024 30.24 853 25.19 0.3 32.6 55 -7.7 18.1
24:00 1024 30.24 853 25.19 0.2 32.4 55 -7.7 18.1